createdAt,value
2023-02-25T02:49:45.229Z,11.80
2023-02-25T02:52:36.822Z,11.70
2023-02-25T02:55:28.235Z,11.80
2023-02-25T02:58:21.422Z,11.90
2023-02-25T03:01:17.706Z,11.90
2023-02-25T03:04:10.307Z,12.00
2023-02-25T03:07:04.628Z,11.80
2023-02-25T03:09:56.411Z,11.90
2023-02-25T03:12:44.894Z,12.00
2023-02-25T03:15:36.336Z,12.20
2023-02-25T03:18:34.383Z,12.00
2023-02-25T03:21:27.714Z,11.70
2023-02-25T03:24:23.362Z,11.90
2023-02-25T03:27:26.771Z,11.90
2023-02-25T03:30:22.436Z,11.70
2023-02-25T03:33:14.939Z,11.80
2023-02-25T03:36:08.652Z,12.10
2023-02-25T03:39:00.159Z,12.20
2023-02-25T03:41:53.299Z,12.10
2023-02-25T03:44:46.532Z,12.20
2023-02-25T03:47:38.268Z,12.20
2023-02-25T03:50:31.336Z,12.20
2023-02-25T03:53:19.945Z,12.30
2023-02-25T03:56:11.696Z,12.40
2023-02-25T03:59:01.518Z,12.50
2023-02-25T04:01:53.413Z,12.50
2023-02-25T04:04:42.556Z,12.60
2023-02-25T04:07:31.079Z,12.70
2023-02-25T04:10:26.208Z,12.80
2023-02-25T04:13:20.411Z,12.80
2023-02-25T04:16:10.439Z,12.90
2023-02-25T04:18:59.260Z,12.80
2023-02-25T04:21:48.122Z,12.80
2023-02-25T04:24:36.562Z,13.00
2023-02-25T04:27:25.050Z,12.80
2023-02-25T04:30:14.575Z,12.70
2023-02-25T04:33:04.709Z,12.50
2023-02-25T04:35:53.217Z,12.50
2023-02-25T04:38:42.368Z,12.30
2023-02-25T04:41:33.101Z,12.50
2023-02-25T04:44:21.623Z,12.50
2023-02-25T04:47:10.183Z,12.50
2023-02-25T04:50:00.500Z,12.50
2023-02-25T04:52:49.301Z,12.50
2023-02-25T04:55:37.935Z,12.30
2023-02-25T04:58:26.587Z,12.40
2023-02-25T05:01:15.260Z,12.50
2023-02-25T05:04:03.688Z,12.60
2023-02-25T05:06:53.575Z,12.50
2023-02-25T05:09:42.000Z,12.50
2023-02-25T05:12:30.472Z,12.50
2023-02-25T05:15:18.994Z,12.50
2023-02-25T05:18:07.589Z,12.60
2023-02-25T05:20:56.015Z,12.50
2023-02-25T05:23:47.126Z,12.50
2023-02-25T05:26:35.610Z,12.50
2023-02-25T05:29:24.077Z,12.40
2023-02-25T05:32:12.722Z,12.40
2023-02-25T05:35:01.394Z,12.70
2023-02-25T05:37:49.846Z,12.50
2023-02-25T05:40:41.421Z,12.20
2023-02-25T05:43:30.242Z,12.00
2023-02-25T05:46:18.897Z,12.00
2023-02-25T05:49:07.404Z,12.10
2023-02-25T05:51:55.865Z,12.10
2023-02-25T05:54:44.513Z,12.10
2023-02-25T05:57:34.384Z,12.10
2023-02-25T06:00:23.702Z,11.90
2023-02-25T06:03:12.460Z,11.90
2023-02-25T06:06:02.484Z,12.00
2023-02-25T06:08:51.578Z,12.10
2023-02-25T06:11:40.067Z,12.00
2023-02-25T06:14:29.940Z,11.90
2023-02-25T06:17:18.588Z,11.90
2023-02-25T06:20:08.984Z,11.70
2023-02-25T06:22:57.560Z,11.30
2023-02-25T06:25:46.072Z,11.20
2023-02-25T06:28:34.570Z,11.30
2023-02-25T06:31:25.759Z,11.10
2023-02-25T06:34:14.270Z,10.50
2023-02-25T06:37:02.772Z,10.40
2023-02-25T06:39:51.346Z,10.30
2023-02-25T06:42:39.883Z,10.30
2023-02-25T06:45:28.528Z,10.40
2023-02-25T06:48:18.286Z,10.30
2023-02-25T06:51:09.635Z,10.70
2023-02-25T06:53:58.218Z,10.90
2023-02-25T06:56:46.922Z,10.70
2023-02-25T06:59:35.916Z,10.70
2023-02-25T07:02:24.357Z,10.50
2023-02-25T07:05:14.197Z,10.80
2023-02-25T07:08:02.655Z,10.70
2023-02-25T07:10:51.163Z,10.70
2023-02-25T07:13:39.637Z,10.40
2023-02-25T07:16:30.008Z,10.50
2023-02-25T07:19:18.446Z,10.30
2023-02-25T07:22:09.857Z,10.40
2023-02-25T07:24:58.422Z,10.60
2023-02-25T07:27:46.914Z,10.60
2023-02-25T07:30:35.397Z,10.60
2023-02-25T07:33:23.931Z,10.80
2023-02-25T07:36:13.599Z,10.80
2023-02-25T07:39:04.416Z,10.70
2023-02-25T07:41:52.845Z,10.80
2023-02-25T07:44:41.414Z,11.20
2023-02-25T07:47:29.912Z,11.30
2023-02-25T07:50:18.476Z,11.70
2023-02-25T07:53:06.922Z,11.90
2023-02-25T07:55:56.695Z,11.80
2023-02-25T07:58:45.256Z,11.90
2023-02-25T08:01:35.331Z,11.90
2023-02-25T08:04:24.603Z,12.00
2023-02-25T08:07:13.196Z,12.10
2023-02-25T08:10:01.651Z,12.10
2023-02-25T08:12:51.501Z,12.10
2023-02-25T08:15:42.643Z,12.10
2023-02-25T08:18:31.098Z,12.30
2023-02-25T08:21:21.680Z,12.30
2023-02-25T08:24:10.820Z,12.20
2023-02-25T08:26:59.328Z,12.30
2023-02-25T08:29:49.385Z,12.50
2023-02-25T08:32:38.491Z,12.70
2023-02-25T08:35:27.654Z,12.70
2023-02-25T08:38:16.111Z,12.80
2023-02-25T08:41:04.863Z,12.70
2023-02-25T08:43:55.492Z,12.70
2023-02-25T08:46:46.004Z,12.90
2023-02-25T08:49:34.499Z,12.60
2023-02-25T08:52:22.953Z,12.80
2023-02-25T08:55:14.913Z,12.80
2023-02-25T08:58:03.416Z,12.80
2023-02-25T09:00:52.040Z,12.60
2023-02-25T09:03:53.591Z,12.40
2023-02-25T09:06:42.220Z,12.30
2023-02-25T09:09:30.955Z,12.60
2023-02-25T09:12:19.543Z,12.80
2023-02-25T09:17:57.447Z,13.30
2023-02-25T09:52:05.813Z,14.70
2023-02-25T09:54:59.182Z,14.60
2023-02-25T10:00:46.709Z,15.20
2023-02-25T10:03:50.435Z,15.20
2023-02-25T10:06:44.088Z,15.40
2023-02-25T10:09:40.082Z,15.40
2023-02-25T10:12:35.932Z,15.60
2023-02-25T10:15:38.510Z,15.80
2023-02-25T10:18:47.630Z,16.00
2023-02-25T10:22:06.577Z,16.00
2023-02-25T10:24:59.406Z,16.20
2023-02-25T10:27:55.108Z,16.30
2023-02-25T10:30:51.467Z,15.90
2023-02-25T10:33:42.111Z,15.80
2023-02-25T10:36:35.018Z,16.00
2023-02-25T10:39:24.076Z,16.10
2023-02-25T10:42:13.741Z,16.10
2023-02-25T10:45:14.522Z,16.00
2023-02-25T10:48:08.422Z,16.20
2023-02-25T10:51:06.707Z,16.20
2023-02-25T10:54:07.551Z,16.20
2023-02-25T10:56:58.787Z,15.90
2023-02-25T10:59:49.181Z,15.90
2023-02-25T11:02:43.602Z,16.10
2023-02-25T11:05:36.188Z,16.30
2023-02-25T11:08:30.848Z,16.30
2023-02-25T11:11:22.483Z,16.20
2023-02-25T11:14:16.920Z,16.10
2023-02-25T11:17:08.657Z,16.20
2023-02-25T11:20:02.558Z,16.10
2023-02-25T11:22:53.692Z,16.10
2023-02-25T11:25:44.634Z,16.10
2023-02-25T11:28:37.042Z,16.10
2023-02-25T11:31:30.428Z,16.10
2023-02-25T11:34:24.061Z,16.10
2023-02-25T11:37:35.846Z,16.10
2023-02-25T11:40:28.324Z,16.20
2023-02-25T11:43:20.181Z,16.30
2023-02-25T11:46:14.015Z,16.30
2023-02-25T11:49:18.718Z,16.10
2023-02-25T11:52:13.050Z,16.30
2023-02-25T11:55:12.722Z,16.20
2023-02-25T11:58:11.120Z,16.20
2023-02-25T12:01:04.739Z,16.30
2023-02-25T13:29:04.838Z,16.50
2023-02-25T13:32:04.583Z,16.70
2023-02-25T13:35:13.834Z,16.70
2023-02-25T13:38:20.648Z,16.50
2023-02-25T13:41:37.728Z,16.50
2023-02-25T13:44:42.306Z,16.50
2023-02-25T13:47:53.781Z,16.70
2023-02-25T13:51:08.314Z,16.70
2023-02-25T13:54:34.937Z,16.50
2023-02-25T13:57:46.536Z,16.60
2023-02-25T14:00:51.457Z,16.60
2023-02-25T14:04:01.407Z,16.70
2023-02-25T14:07:19.801Z,16.80
2023-02-25T14:10:41.830Z,16.70
2023-02-25T14:14:09.736Z,16.80
2023-02-25T14:17:28.206Z,16.60
2023-02-25T14:20:28.376Z,16.70
2023-02-25T14:23:29.465Z,16.60
2023-02-25T14:26:30.160Z,16.70
2023-02-25T14:29:26.311Z,16.70
2023-02-25T14:32:35.991Z,16.60
2023-02-25T14:35:44.912Z,16.60
2023-02-25T14:38:44.734Z,16.60
2023-02-25T14:41:49.915Z,16.50
2023-02-25T14:44:46.161Z,16.40
2023-02-25T14:50:32.304Z,16.50
2023-02-25T14:53:48.380Z,16.70
2023-02-25T14:57:07.326Z,16.70
2023-02-25T15:00:16.201Z,16.70
2023-02-25T15:03:34.325Z,16.70
2023-02-25T15:06:44.850Z,16.60
2023-02-25T15:09:56.908Z,16.50
2023-02-25T15:13:12.467Z,16.60
2023-02-25T15:16:32.503Z,16.40
2023-02-25T15:19:54.386Z,16.40
2023-02-25T15:22:56.792Z,16.40
2023-02-25T15:25:49.576Z,16.30
2023-02-25T15:28:48.292Z,16.40
2023-02-25T15:31:40.405Z,16.50
2023-02-25T15:34:38.614Z,16.70
2023-02-25T15:37:31.381Z,16.40
2023-02-25T15:40:46.253Z,16.40
2023-02-25T15:43:46.936Z,16.40
2023-02-25T15:46:46.350Z,16.40
2023-02-25T15:49:37.799Z,16.20
2023-02-25T15:52:53.185Z,16.20
2023-02-25T15:58:44.371Z,16.30
2023-02-25T16:01:43.872Z,16.20
2023-02-25T16:04:48.858Z,16.30
2023-02-25T16:07:39.576Z,16.20
2023-02-25T16:10:32.865Z,16.20
2023-02-25T16:13:28.154Z,16.10
2023-02-25T16:16:18.422Z,16.10
2023-02-25T16:19:11.673Z,16.20
2023-02-25T16:22:03.726Z,16.10
2023-02-25T16:24:54.108Z,16.00
2023-02-25T16:27:55.475Z,16.00
2023-02-25T16:30:50.870Z,16.10
2023-02-25T16:33:46.560Z,16.00
2023-02-25T16:36:42.679Z,15.90
2023-02-25T16:39:32.660Z,15.90
2023-02-25T16:42:21.884Z,15.90
2023-02-25T16:45:22.418Z,15.90
2023-02-25T16:48:17.244Z,15.90
2023-02-25T16:51:11.383Z,15.90
2023-02-25T16:54:06.391Z,15.90
2023-02-25T16:56:59.045Z,15.80
2023-02-25T17:02:46.451Z,15.80
2023-02-25T17:05:37.434Z,15.90
2023-02-25T17:08:25.864Z,15.90
2023-02-25T17:11:18.221Z,15.90
2023-02-25T17:14:06.867Z,15.90
2023-02-25T17:16:55.824Z,15.90
2023-02-25T17:19:44.481Z,15.90
2023-02-25T17:22:35.282Z,15.90
2023-02-25T17:25:27.341Z,15.90
2023-02-25T17:28:23.998Z,15.90
2023-02-25T17:31:15.140Z,15.80
2023-02-25T17:34:05.128Z,15.90
2023-02-25T17:39:44.249Z,15.80
2023-02-25T17:42:35.608Z,15.80
2023-02-25T17:45:47.095Z,15.80
2023-02-25T17:48:43.150Z,15.70
2023-02-25T17:51:34.364Z,15.80
2023-02-25T17:54:25.353Z,15.70
2023-02-25T17:57:18.951Z,15.80
2023-02-25T18:00:14.242Z,15.70
2023-02-25T18:03:19.571Z,15.70
2023-02-25T18:06:29.649Z,15.80
2023-02-25T18:09:39.381Z,15.80
2023-02-25T18:12:31.088Z,15.80
2023-02-25T18:15:22.027Z,15.80
2023-02-25T18:18:22.734Z,15.80
2023-02-25T18:21:12.477Z,15.80
2023-02-25T18:24:01.682Z,15.80
2023-02-25T18:27:02.731Z,15.80
2023-02-25T18:29:51.494Z,15.80
2023-02-25T18:32:40.119Z,15.80
2023-02-25T18:35:31.953Z,15.80
2023-02-25T18:38:22.605Z,16.00
2023-02-25T19:15:14.359Z,14.80
2023-02-25T19:18:03.024Z,14.60
2023-02-25T19:20:51.774Z,14.30
2023-02-25T19:23:40.446Z,14.00
2023-02-25T19:26:30.634Z,14.00
2023-02-25T19:29:19.575Z,14.10
2023-02-25T19:32:08.142Z,14.20
2023-02-25T19:34:56.674Z,14.30
2023-02-25T19:37:45.268Z,14.20
2023-02-25T19:40:34.460Z,14.30
2023-02-25T19:43:24.354Z,14.30
2023-02-25T19:46:17.226Z,14.30
2023-02-25T19:49:06.026Z,14.10
2023-02-25T19:51:54.736Z,14.10
2023-02-25T19:54:43.417Z,14.00
2023-02-25T19:57:31.932Z,14.10
2023-02-25T20:00:23.761Z,14.10
2023-02-25T20:03:12.511Z,14.20
2023-02-25T20:06:06.736Z,13.90
2023-02-25T20:08:55.946Z,13.80
2023-02-25T20:11:46.376Z,13.90
2023-02-25T20:14:35.205Z,14.00
2023-02-25T20:17:26.088Z,14.10
2023-02-25T20:20:17.718Z,14.40
2023-02-25T20:23:06.989Z,14.50
2023-02-25T20:26:05.006Z,14.60
2023-02-25T20:28:55.133Z,14.50
2023-02-25T20:31:43.863Z,14.60
2023-02-25T20:34:34.129Z,14.60
2023-02-25T20:37:24.681Z,14.60
2023-02-25T20:40:14.371Z,14.60
2023-02-25T20:43:03.198Z,14.70
2023-02-25T20:45:52.135Z,14.80
2023-02-25T20:48:40.890Z,14.80
2023-02-25T20:51:31.666Z,14.80
2023-02-25T20:54:21.080Z,14.80
2023-02-25T20:57:12.801Z,14.80
2023-02-25T21:00:02.808Z,14.90
2023-02-25T21:02:51.388Z,14.90
2023-02-25T21:05:40.395Z,14.80
2023-02-25T21:08:30.258Z,14.80
2023-02-25T21:11:18.904Z,14.80
2023-02-25T21:14:10.303Z,14.90
2023-02-25T21:16:59.128Z,14.90
2023-02-25T21:19:47.567Z,14.80
2023-02-25T21:22:36.362Z,14.70
2023-02-25T21:25:26.381Z,14.80
2023-02-25T21:28:14.850Z,14.80
2023-02-25T21:31:06.265Z,14.80
2023-02-25T21:33:54.780Z,14.70
2023-02-25T21:36:43.793Z,14.80
2023-02-25T21:39:32.289Z,14.80
2023-02-25T21:42:22.169Z,14.80
2023-02-25T21:45:13.029Z,14.80
2023-02-25T21:48:01.538Z,14.80
2023-02-25T21:50:50.067Z,14.80
2023-02-25T21:53:38.480Z,14.80
2023-02-25T21:56:28.061Z,14.80
2023-02-25T21:59:18.683Z,14.90
2023-02-25T22:02:07.204Z,14.90
2023-02-25T22:04:55.701Z,14.80
2023-02-25T22:07:44.156Z,14.50
2023-02-25T22:10:34.203Z,14.50
2023-02-25T22:13:22.672Z,14.60
2023-02-25T22:16:13.701Z,14.70
2023-02-25T22:19:02.271Z,14.70
2023-02-25T22:21:51.179Z,14.80
2023-02-25T22:24:39.653Z,14.80
2023-02-25T22:27:28.096Z,14.70
2023-02-25T22:30:16.731Z,14.70
2023-02-25T22:33:06.575Z,14.80
2023-02-25T22:35:59.058Z,14.80
2023-02-25T22:38:48.895Z,14.80
2023-02-25T22:41:38.396Z,14.90
2023-02-25T22:44:26.930Z,14.90
2023-02-25T22:47:15.347Z,14.90
2023-02-25T22:50:05.658Z,14.80
2023-02-25T22:52:54.167Z,14.80
2023-02-25T22:55:42.650Z,14.80
2023-02-25T22:58:31.976Z,14.90
2023-02-25T23:01:22.685Z,14.70
2023-02-25T23:04:11.132Z,14.50
2023-02-25T23:07:01.135Z,14.50
2023-02-25T23:09:49.886Z,13.80
2023-02-25T23:12:38.535Z,13.90
2023-02-25T23:15:28.593Z,14.10
2023-02-25T23:18:19.130Z,13.70
2023-02-25T23:21:12.076Z,13.80
2023-02-25T23:24:02.974Z,13.60
2023-02-25T23:26:53.710Z,13.40
2023-02-25T23:29:42.510Z,13.30
2023-02-25T23:32:31.093Z,13.40
2023-02-25T23:35:19.660Z,13.50
2023-02-25T23:38:08.109Z,13.70
2023-02-25T23:41:01.258Z,13.70
2023-02-25T23:43:53.204Z,13.80
2023-02-25T23:46:45.011Z,13.90
2023-02-25T23:49:33.837Z,14.20
2023-02-25T23:52:22.311Z,14.30
2023-02-25T23:55:11.616Z,14.30
2023-02-25T23:58:01.464Z,14.00
